createdAt,value
2019-02-11T00:01:15.120Z,4.17
2019-02-11T00:04:19.830Z,5.05
2019-02-11T00:06:52.671Z,3.90
2019-02-11T00:12:43.123Z,3.02
2019-02-11T00:15:31.942Z,2.98
2019-02-11T00:18:20.035Z,2.90
2019-02-11T00:21:18.841Z,3.55
2019-02-11T00:24:51.259Z,3.45
2019-02-11T00:30:07.527Z,3.10
2019-02-11T00:32:42.275Z,2.50
2019-02-11T00:35:13.858Z,2.50
2019-02-11T00:37:44.816Z,2.87
2019-02-11T00:43:06.370Z,2.85
2019-02-11T00:45:36.236Z,4.40
2019-02-11T00:48:07.111Z,3.17
2019-02-11T00:50:39.274Z,2.62
2019-02-11T00:53:12.002Z,1.85
2019-02-11T00:58:31.700Z,2.08
2019-02-11T01:01:00.955Z,2.15
2019-02-11T01:03:30.385Z,2.05
2019-02-11T01:05:59.823Z,1.47
2019-02-11T01:08:28.896Z,1.60
2019-02-11T01:10:57.959Z,1.90
2019-02-11T01:13:27.995Z,1.80
2019-02-11T01:15:57.334Z,1.40
2019-02-11T01:18:26.402Z,1.50
2019-02-11T01:20:55.781Z,2.50
2019-02-11T01:23:24.844Z,2.50
2019-02-11T01:25:54.044Z,2.05
2019-02-11T01:28:23.219Z,2.80
2019-02-11T01:30:52.305Z,2.83
2019-02-11T01:33:21.223Z,1.90
2019-02-11T01:35:50.191Z,1.70
2019-02-11T01:38:19.191Z,1.85
2019-02-11T01:40:48.392Z,1.95
2019-02-11T01:43:17.259Z,1.65
2019-02-11T01:45:46.244Z,1.67
2019-02-11T01:48:15.228Z,1.90
2019-02-11T01:50:44.137Z,1.70
2019-02-11T01:53:13.109Z,2.15
2019-02-11T01:55:42.150Z,1.70
2019-02-11T01:58:11.274Z,1.12
2019-02-11T02:00:40.195Z,1.67
2019-02-11T02:03:09.084Z,1.60
2019-02-11T02:05:38.075Z,1.42
2019-02-11T02:08:07.085Z,1.42
2019-02-11T02:10:36.034Z,2.52
2019-02-11T02:13:05.093Z,2.17
2019-02-11T02:15:34.232Z,1.87
2019-02-11T02:18:03.150Z,1.87
2019-02-11T02:20:32.197Z,2.05
2019-02-11T02:23:01.308Z,2.15
2019-02-11T02:25:30.300Z,1.75
2019-02-11T02:27:59.189Z,2.02
2019-02-11T02:30:30.272Z,1.98
2019-02-11T02:32:59.180Z,2.08
2019-02-11T02:35:28.093Z,1.70
2019-02-11T02:37:57.107Z,2.05
2019-02-11T02:40:28.241Z,2.42
2019-02-11T02:42:57.213Z,2.58
2019-02-11T02:45:26.713Z,2.17
2019-02-11T02:47:55.723Z,2.00
2019-02-11T02:50:24.857Z,2.35
2019-02-11T02:52:53.885Z,2.67
2019-02-11T02:55:22.977Z,2.95
2019-02-11T02:57:51.992Z,2.08
2019-02-11T03:00:20.863Z,2.47
2019-02-11T03:02:49.785Z,2.05
2019-02-11T03:05:18.761Z,2.00
2019-02-11T03:07:47.762Z,2.05
2019-02-11T03:10:16.744Z,3.27
2019-02-11T03:12:45.991Z,2.83
2019-02-11T03:15:15.229Z,2.92
2019-02-11T03:17:44.440Z,1.95
2019-02-11T03:20:13.642Z,3.17
2019-02-11T03:22:42.981Z,3.15
2019-02-11T03:25:12.289Z,3.33
2019-02-11T03:27:41.661Z,2.00
2019-02-11T03:30:52.413Z,2.42
2019-02-11T03:33:21.692Z,2.58
2019-02-11T03:35:53.303Z,2.85
2019-02-11T03:38:22.814Z,2.80
2019-02-11T03:40:52.347Z,2.27
2019-02-11T03:49:05.062Z,2.65
2019-02-11T03:51:34.335Z,5.42
2019-02-11T03:54:03.931Z,1.85
2019-02-11T03:56:33.513Z,1.75
2019-02-11T03:59:02.915Z,2.90
2019-02-11T04:01:32.260Z,2.17
2019-02-11T04:04:01.511Z,2.55
2019-02-11T04:06:55.742Z,2.60
2019-02-11T04:09:26.729Z,3.08
2019-02-11T04:11:55.703Z,2.67
2019-02-11T04:14:25.336Z,1.82
2019-02-11T04:16:55.177Z,2.25
2019-02-11T04:19:24.423Z,2.15
2019-02-11T04:22:20.886Z,2.10
2019-02-11T04:24:46.169Z,1.92
2019-02-11T04:27:18.228Z,2.10
2019-02-11T04:29:48.291Z,3.05
2019-02-11T04:32:17.594Z,3.02
2019-02-11T04:34:46.637Z,2.30
2019-02-11T04:37:15.685Z,3.52
2019-02-11T04:39:44.719Z,2.65
2019-02-11T04:42:21.139Z,2.60
2019-02-11T04:44:50.378Z,3.22
2019-02-11T04:47:38.215Z,3.37
2019-02-11T04:50:18.262Z,2.60
2019-02-11T04:52:47.734Z,2.20
2019-02-11T04:55:16.858Z,2.50
2019-02-11T04:57:45.923Z,2.40
2019-02-11T05:00:15.062Z,3.00
2019-02-11T05:03:07.598Z,2.42
2019-02-11T05:05:37.091Z,2.20
2019-02-11T05:08:06.701Z,4.45
2019-02-11T05:10:36.008Z,3.77
2019-02-11T05:13:05.239Z,2.42
2019-02-11T05:15:39.643Z,3.25
2019-02-11T05:18:08.931Z,2.33
2019-02-11T05:21:01.315Z,2.50
2019-02-11T05:23:30.744Z,2.77
2019-02-11T05:26:08.689Z,3.90
2019-02-11T05:28:38.286Z,2.37
2019-02-11T05:31:07.514Z,5.70
2019-02-11T05:33:50.083Z,2.90
2019-02-11T05:36:39.893Z,3.55
2019-02-11T05:39:10.429Z,4.03
2019-02-11T05:41:39.811Z,2.47
2019-02-11T05:44:09.111Z,4.45
2019-02-11T05:46:41.921Z,4.42
2019-02-11T05:49:11.370Z,6.72
2019-02-11T05:51:40.852Z,3.95
2019-02-11T05:54:10.148Z,2.30
2019-02-11T05:56:39.435Z,2.85
2019-02-11T05:59:08.902Z,4.30
2019-02-11T06:01:54.630Z,3.08
2019-02-11T06:04:30.663Z,2.70
2019-02-11T06:07:17.684Z,3.22
2019-02-11T06:10:06.562Z,3.70
2019-02-11T06:12:46.287Z,2.90
2019-02-11T06:15:20.075Z,4.95
2019-02-11T06:17:49.276Z,3.75
2019-02-11T06:20:24.548Z,2.65
2019-02-11T06:26:10.237Z,3.00
2019-02-11T06:28:39.935Z,4.53
2019-02-11T06:31:09.300Z,2.62
2019-02-11T06:34:09.148Z,3.85
2019-02-11T06:36:38.577Z,4.12
2019-02-11T06:39:17.483Z,3.05
2019-02-11T06:41:47.085Z,3.52
2019-02-11T06:44:39.832Z,4.05
2019-02-11T06:47:34.120Z,3.77
2019-02-11T06:50:21.158Z,2.98
2019-02-11T06:52:50.505Z,3.45
2019-02-11T06:55:23.036Z,4.03
2019-02-11T06:57:52.266Z,3.37
2019-02-11T07:00:33.372Z,3.45
2019-02-11T07:02:53.933Z,3.35
2019-02-11T07:05:23.009Z,6.92
2019-02-11T07:08:14.482Z,3.67
2019-02-11T07:10:43.781Z,2.77
2019-02-11T07:13:13.154Z,2.75
2019-02-11T07:15:42.560Z,3.60
2019-02-11T07:18:11.684Z,3.30
2019-02-11T07:20:40.879Z,3.77
2019-02-11T07:23:14.679Z,3.20
2019-02-11T07:25:43.665Z,4.20
2019-02-11T07:28:12.502Z,3.83
2019-02-11T07:30:41.574Z,4.37
2019-02-11T07:33:10.611Z,4.60
2019-02-11T07:35:39.770Z,4.45
2019-02-11T07:38:08.843Z,2.87
2019-02-11T07:40:37.856Z,3.85
2019-02-11T07:43:37.880Z,3.65
2019-02-11T07:46:11.212Z,5.33
2019-02-11T07:48:40.157Z,3.83
2019-02-11T07:51:28.507Z,3.55
2019-02-11T07:54:05.695Z,3.45
2019-02-11T07:56:35.109Z,3.62
2019-02-11T08:01:54.904Z,3.35
2019-02-11T08:04:27.152Z,3.35
2019-02-11T08:06:56.099Z,4.95
2019-02-11T08:09:27.898Z,4.03
2019-02-11T08:11:57.234Z,4.00
2019-02-11T08:14:26.612Z,3.70
2019-02-11T08:16:59.144Z,3.52
2019-02-11T08:19:28.656Z,3.33
2019-02-11T08:21:57.964Z,3.87
2019-02-11T08:24:27.285Z,3.42
2019-02-11T08:26:56.179Z,4.25
2019-02-11T08:29:25.256Z,4.05
2019-02-11T08:31:54.273Z,3.20
2019-02-11T08:34:24.239Z,4.97
2019-02-11T08:36:53.082Z,4.37
2019-02-11T08:39:22.098Z,3.50
2019-02-11T08:41:50.953Z,3.30
2019-02-11T08:44:19.910Z,3.17
2019-02-11T08:46:49.016Z,3.37
2019-02-11T08:49:17.863Z,4.00
2019-02-11T08:51:46.855Z,4.03
2019-02-11T08:54:15.800Z,4.87
2019-02-11T08:56:44.720Z,4.97
2019-02-11T08:59:13.587Z,4.33
2019-02-11T09:01:42.506Z,6.00
2019-02-11T09:04:18.813Z,3.40
2019-02-11T09:06:42.199Z,4.03
2019-02-11T09:09:11.221Z,3.08
2019-02-11T09:11:40.228Z,4.95
2019-02-11T09:14:09.308Z,4.00
2019-02-11T09:16:38.341Z,4.50
2019-02-11T09:19:07.438Z,4.95
2019-02-11T09:21:36.591Z,3.40
2019-02-11T09:24:05.882Z,3.25
2019-02-11T09:26:35.905Z,5.80
2019-02-11T09:29:05.004Z,4.15
2019-02-11T09:31:34.023Z,4.08
2019-02-11T09:34:02.983Z,4.87
2019-02-11T09:36:31.979Z,4.15
2019-02-11T09:39:01.155Z,5.45
2019-02-11T09:41:30.035Z,4.47
2019-02-11T09:43:59.094Z,4.17
2019-02-11T09:46:28.118Z,4.72
2019-02-11T09:48:57.101Z,4.65
2019-02-11T09:51:27.239Z,4.60
2019-02-11T09:53:56.256Z,4.28
2019-02-11T09:56:25.232Z,5.08
2019-02-11T09:58:54.388Z,4.72
2019-02-11T10:01:23.392Z,4.87
2019-02-11T10:03:52.355Z,5.17
2019-02-11T10:06:21.483Z,2.92
2019-02-11T10:08:50.403Z,4.47
2019-02-11T10:11:19.599Z,5.08
2019-02-11T10:13:48.765Z,4.55
2019-02-11T10:16:17.795Z,4.33
2019-02-11T10:18:46.865Z,4.30
2019-02-11T10:21:15.935Z,5.10
2019-02-11T10:23:44.838Z,5.72
2019-02-11T10:26:13.901Z,3.67
2019-02-11T10:28:42.801Z,4.03
2019-02-11T10:31:11.827Z,3.77
2019-02-11T10:33:40.952Z,2.92
2019-02-11T10:36:10.027Z,5.15
2019-02-11T10:38:39.109Z,3.37
2019-02-11T10:41:08.206Z,3.20
2019-02-11T10:43:37.155Z,3.95
2019-02-11T10:46:06.230Z,3.95
2019-02-11T10:48:35.180Z,4.53
2019-02-11T10:51:04.215Z,4.17
2019-02-11T10:53:33.262Z,3.42
2019-02-11T10:56:02.418Z,4.22
2019-02-11T10:58:31.477Z,3.62
2019-02-11T11:01:00.448Z,2.98
2019-02-11T11:03:29.403Z,2.52
2019-02-11T11:05:58.372Z,2.58
2019-02-11T11:08:27.436Z,2.70
2019-02-11T11:10:56.595Z,2.85
2019-02-11T11:13:25.565Z,3.45
2019-02-11T11:15:54.593Z,2.35
2019-02-11T11:18:23.547Z,3.20
2019-02-11T11:20:52.575Z,2.75
2019-02-11T11:23:22.051Z,2.27
2019-02-11T11:25:51.192Z,2.52
2019-02-11T11:28:20.171Z,2.22
2019-02-11T11:30:49.200Z,1.40
2019-02-11T11:33:18.208Z,1.00
2019-02-11T11:35:47.226Z,2.35
2019-02-11T11:38:16.442Z,1.85
2019-02-11T11:40:45.448Z,1.40
2019-02-11T11:43:14.439Z,1.55
2019-02-11T11:45:43.722Z,1.82
2019-02-11T11:48:12.947Z,1.20
2019-02-11T11:50:42.116Z,1.95
2019-02-11T11:53:11.163Z,1.65
2019-02-11T11:55:40.175Z,1.15
2019-02-11T11:58:09.232Z,1.95
2019-02-11T12:00:38.346Z,1.65
2019-02-11T12:03:07.419Z,0.80
2019-02-11T12:05:36.519Z,0.65
2019-02-11T12:08:05.639Z,1.50
2019-02-11T12:10:37.136Z,0.68
2019-02-11T12:13:21.557Z,1.10
2019-02-11T12:15:37.241Z,0.90
2019-02-11T12:18:06.668Z,1.20
2019-02-11T12:20:35.949Z,1.37
2019-02-11T12:23:05.018Z,1.45
2019-02-11T12:25:33.941Z,2.00
2019-02-11T12:28:02.937Z,1.62
2019-02-11T12:30:31.920Z,2.47
2019-02-11T12:33:01.261Z,2.30
2019-02-11T12:35:30.270Z,1.98
2019-02-11T12:37:59.463Z,1.60
2019-02-11T12:40:28.912Z,1.85
2019-02-11T12:42:58.075Z,2.60
2019-02-11T12:45:27.134Z,2.10
2019-02-11T12:47:56.360Z,2.40
2019-02-11T12:50:25.347Z,2.70
2019-02-11T12:52:54.305Z,1.90
2019-02-11T12:55:23.305Z,2.77
2019-02-11T12:57:52.490Z,2.58
2019-02-11T13:00:22.200Z,1.75
2019-02-11T13:02:51.299Z,2.20
2019-02-11T13:05:22.888Z,2.77
2019-02-11T13:07:51.232Z,2.65
2019-02-11T13:10:20.601Z,3.20
2019-02-11T13:12:49.774Z,2.33
2019-02-11T13:15:52.901Z,3.75
2019-02-11T13:17:50.317Z,2.40
2019-02-11T13:20:19.923Z,1.70
2019-02-11T13:22:49.209Z,1.60
2019-02-11T13:25:18.593Z,1.70
2019-02-11T13:27:47.996Z,2.02
2019-02-11T13:30:19.338Z,2.10
2019-02-11T13:32:48.406Z,1.80
2019-02-11T13:35:17.547Z,2.08
2019-02-11T13:37:54.305Z,1.50
2019-02-11T13:40:30.562Z,2.77
2019-02-11T13:42:59.803Z,1.60
2019-02-11T13:45:31.861Z,1.30
2019-02-11T13:48:01.114Z,1.00
2019-02-11T13:50:30.113Z,1.77
2019-02-11T13:53:05.398Z,1.60
2019-02-11T13:55:34.510Z,1.30
2019-02-11T13:58:03.995Z,1.57
2019-02-11T14:00:33.798Z,1.90
2019-02-11T14:03:04.486Z,1.47
2019-02-11T14:05:33.711Z,2.33
2019-02-11T14:08:06.650Z,1.70
2019-02-11T14:10:35.940Z,1.82
2019-02-11T14:13:07.172Z,2.17
2019-02-11T14:19:29.176Z,1.50
2019-02-11T14:22:03.021Z,2.27
2019-02-11T14:24:36.278Z,2.22
2019-02-11T14:27:10.510Z,1.62
2019-02-11T14:33:06.327Z,1.85
2019-02-11T14:35:44.919Z,1.57
2019-02-11T14:38:17.861Z,2.05
2019-02-11T14:41:13.410Z,2.08
2019-02-11T14:43:48.680Z,1.10
2019-02-11T14:47:06.487Z,3.10
2019-02-11T14:50:25.338Z,2.15
2019-02-11T14:56:21.763Z,2.45
2019-02-11T14:58:58.022Z,1.90
2019-02-11T15:01:38.222Z,1.57
2019-02-11T15:04:26.899Z,2.15
2019-02-11T15:07:20.659Z,3.00
2019-02-11T15:10:21.984Z,2.05
2019-02-11T15:16:13.517Z,1.20
2019-02-11T15:21:58.068Z,2.15
2019-02-11T15:24:27.772Z,1.87
2019-02-11T15:26:56.971Z,2.22
2019-02-11T15:29:26.071Z,2.25
2019-02-11T15:31:55.510Z,3.33
2019-02-11T15:34:30.101Z,3.15
2019-02-11T15:37:02.743Z,2.80
2019-02-11T15:39:31.811Z,4.17
2019-02-11T15:42:00.918Z,3.62
2019-02-11T15:44:29.935Z,4.67
2019-02-11T15:47:06.655Z,3.33
2019-02-11T15:49:36.148Z,4.10
2019-02-11T15:52:13.873Z,2.60
2019-02-11T15:54:43.084Z,2.65
2019-02-11T15:57:12.181Z,2.05
2019-02-11T15:59:41.082Z,2.75
2019-02-11T16:02:09.987Z,3.17
2019-02-11T16:04:38.997Z,2.00
2019-02-11T16:07:08.040Z,3.47
2019-02-11T16:09:37.054Z,4.15
2019-02-11T16:12:06.188Z,2.75
2019-02-11T16:14:35.143Z,2.77
2019-02-11T16:17:06.078Z,1.87
2019-02-11T16:19:35.098Z,3.15
2019-02-11T16:22:04.077Z,3.33
2019-02-11T16:24:33.049Z,3.22
2019-02-11T16:27:02.257Z,2.70
2019-02-11T16:29:52.352Z,1.95
2019-02-11T16:32:21.980Z,3.30
2019-02-11T16:34:50.832Z,2.40
2019-02-11T16:37:39.114Z,2.77
2019-02-11T16:40:13.684Z,2.37
2019-02-11T16:42:42.723Z,2.30
2019-02-11T16:45:11.771Z,2.92
2019-02-11T16:47:40.887Z,2.52
2019-02-11T16:50:10.148Z,2.75
2019-02-11T16:52:40.211Z,3.40
2019-02-11T16:55:09.343Z,2.70
2019-02-11T16:57:38.487Z,2.45
2019-02-11T17:00:09.721Z,2.15
2019-02-11T17:02:38.766Z,2.98
2019-02-11T17:05:08.508Z,3.50
2019-02-11T17:07:41.801Z,2.42
2019-02-11T17:10:09.580Z,3.20
2019-02-11T17:12:41.453Z,1.92
2019-02-11T17:15:12.336Z,3.65
2019-02-11T17:17:41.458Z,2.80
2019-02-11T17:20:13.404Z,3.00
2019-02-11T17:22:51.621Z,2.65
2019-02-11T17:25:26.937Z,2.42
2019-02-11T17:31:11.794Z,2.37
2019-02-11T17:34:00.129Z,1.77
2019-02-11T17:36:33.829Z,2.70
2019-02-11T17:39:16.637Z,1.65
2019-02-11T17:42:07.606Z,4.00
2019-02-11T17:44:39.729Z,2.20
2019-02-11T17:47:11.735Z,2.50
2019-02-11T17:49:59.958Z,1.75
2019-02-11T17:52:29.036Z,2.85
2019-02-11T17:55:19.060Z,1.67
2019-02-11T17:57:48.085Z,3.00
2019-02-11T18:00:28.364Z,1.80
2019-02-11T18:02:57.536Z,2.50
2019-02-11T18:05:26.570Z,3.55
2019-02-11T18:07:55.851Z,3.80
2019-02-11T18:10:24.826Z,2.22
2019-02-11T18:12:53.844Z,2.22
2019-02-11T18:15:23.009Z,2.60
2019-02-11T18:17:52.149Z,2.42
2019-02-11T18:20:21.294Z,2.80
2019-02-11T18:22:50.474Z,2.45
2019-02-11T18:25:19.649Z,2.52
2019-02-11T18:27:48.458Z,2.25
2019-02-11T18:30:17.714Z,2.72
2019-02-11T18:32:46.973Z,2.27
2019-02-11T18:35:16.315Z,3.72
2019-02-11T18:37:45.240Z,4.37
2019-02-11T18:40:14.351Z,2.65
2019-02-11T18:42:43.482Z,3.27
2019-02-11T18:45:13.347Z,2.90
2019-02-11T18:48:04.905Z,2.55
2019-02-11T18:50:43.089Z,2.77
2019-02-11T18:53:11.984Z,3.50
2019-02-11T18:55:40.919Z,4.10
2019-02-11T18:58:10.540Z,3.33
2019-02-11T19:00:41.828Z,3.90
2019-02-11T19:03:12.126Z,3.55
2019-02-11T19:05:44.013Z,2.80
2019-02-11T19:08:14.537Z,2.45
2019-02-11T19:10:43.604Z,2.58
2019-02-11T19:13:18.151Z,2.70
2019-02-11T19:16:20.686Z,2.45
2019-02-11T19:19:23.657Z,2.75
2019-02-11T19:21:52.873Z,2.80
2019-02-11T19:24:24.218Z,2.02
2019-02-11T19:26:53.642Z,2.52
2019-02-11T19:29:22.539Z,2.20
2019-02-11T19:31:51.488Z,2.12
2019-02-11T19:34:20.544Z,3.55
2019-02-11T19:36:49.522Z,1.42
2019-02-11T19:39:18.545Z,2.77
2019-02-11T19:41:47.363Z,3.40
2019-02-11T19:44:16.167Z,2.87
2019-02-11T19:46:45.328Z,2.12
2019-02-11T19:49:14.213Z,2.50
2019-02-11T19:51:43.140Z,2.20
2019-02-11T19:54:14.166Z,2.50
2019-02-11T19:56:43.258Z,3.02
2019-02-11T19:59:12.297Z,2.62
2019-02-11T20:01:41.204Z,2.00
2019-02-11T20:04:10.404Z,2.75
2019-02-11T20:06:39.489Z,2.10
2019-02-11T20:09:08.417Z,2.22
2019-02-11T20:11:37.951Z,2.40
2019-02-11T20:14:07.292Z,1.42
2019-02-11T20:16:36.312Z,2.45
2019-02-11T20:19:05.239Z,1.75
2019-02-11T20:21:34.046Z,2.12
2019-02-11T20:24:03.122Z,2.27
2019-02-11T20:26:32.029Z,2.47
2019-02-11T20:29:00.922Z,2.33
2019-02-11T20:31:30.092Z,2.55
2019-02-11T20:33:59.103Z,2.60
2019-02-11T20:36:27.970Z,1.80
2019-02-11T20:38:57.008Z,2.35
2019-02-11T20:41:26.053Z,3.60
2019-02-11T20:43:54.994Z,2.75
2019-02-11T20:46:24.243Z,2.08
2019-02-11T20:48:53.645Z,2.30
2019-02-11T20:51:22.631Z,2.65
2019-02-11T20:53:51.737Z,2.27
2019-02-11T20:56:20.619Z,1.90
2019-02-11T20:58:49.527Z,2.15
2019-02-11T21:01:18.779Z,2.12
2019-02-11T21:03:47.805Z,2.20
2019-02-11T21:06:16.636Z,2.08
2019-02-11T21:08:45.521Z,1.45
2019-02-11T21:11:14.433Z,3.25
2019-02-11T21:13:43.637Z,2.83
2019-02-11T21:16:12.602Z,2.47
2019-02-11T21:18:41.495Z,2.15
2019-02-11T21:21:11.219Z,3.50
2019-02-11T21:23:40.310Z,1.42
2019-02-11T21:26:09.110Z,2.45
2019-02-11T21:28:38.208Z,2.27
2019-02-11T21:31:07.179Z,1.20
2019-02-11T21:33:36.143Z,2.40
2019-02-11T21:36:05.118Z,1.85
2019-02-11T21:38:34.025Z,2.42
2019-02-11T21:41:02.811Z,1.52
2019-02-11T21:43:31.850Z,1.85
2019-02-11T21:46:00.655Z,2.12
2019-02-11T21:48:29.495Z,2.25
2019-02-11T21:50:58.480Z,2.02
2019-02-11T21:53:27.360Z,2.25
2019-02-11T21:55:56.263Z,2.60
2019-02-11T21:58:25.151Z,2.02
2019-02-11T22:01:01.838Z,3.02
2019-02-11T22:03:24.782Z,3.22
2019-02-11T22:05:53.566Z,2.05
2019-02-11T22:08:22.532Z,1.95
2019-02-11T22:10:51.352Z,2.10
2019-02-11T22:13:20.207Z,4.03
2019-02-11T22:15:49.029Z,2.45
2019-02-11T22:18:17.898Z,2.10
2019-02-11T22:20:46.876Z,3.20
2019-02-11T22:23:15.868Z,1.90
2019-02-11T22:25:44.650Z,3.20
2019-02-11T22:28:13.463Z,2.60
2019-02-11T22:30:42.496Z,2.08
2019-02-11T22:33:11.447Z,2.75
2019-02-11T22:35:40.330Z,2.40
2019-02-11T22:38:09.121Z,1.90
2019-02-11T22:40:37.998Z,2.35
2019-02-11T22:43:06.831Z,1.80
2019-02-11T22:45:35.784Z,2.37
2019-02-11T22:48:04.675Z,4.53
2019-02-11T22:50:33.591Z,2.22
2019-02-11T22:53:02.395Z,1.50
2019-02-11T22:55:31.340Z,2.62
2019-02-11T22:58:00.146Z,1.65
2019-02-11T23:00:49.095Z,2.65
2019-02-11T23:03:18.098Z,1.57
2019-02-11T23:05:46.987Z,2.10
2019-02-11T23:08:15.865Z,1.35
2019-02-11T23:10:44.840Z,1.30
2019-02-11T23:13:13.794Z,2.27
2019-02-11T23:15:42.753Z,1.75
2019-02-11T23:18:11.605Z,1.77
2019-02-11T23:20:40.707Z,1.30
2019-02-11T23:23:09.622Z,2.30
2019-02-11T23:25:38.555Z,1.50
2019-02-11T23:28:07.572Z,1.32
2019-02-11T23:30:36.510Z,1.82
2019-02-11T23:33:05.464Z,1.62
2019-02-11T23:35:34.266Z,1.75
2019-02-11T23:38:03.172Z,1.35
2019-02-11T23:40:32.346Z,0.90
2019-02-11T23:43:01.278Z,1.50
2019-02-11T23:45:30.211Z,1.98
2019-02-11T23:47:59.168Z,0.95
2019-02-11T23:50:28.044Z,1.50
2019-02-11T23:52:56.970Z,2.25
2019-02-11T23:55:26.740Z,1.17
2019-02-11T23:57:55.645Z,1.10
